Lexington, Michigan
Current Conditions -  °F | °C
As of 3:00 PM on Thursday 29 Jan 2015 (Local Time) from CYZR Reporting Station
Light Snow Light Snow  
Wind Chill: 26°   Ceiling: 4300
Heat Index: 32°   Visibility: 9mi
Dew Point: 27°   Wind: 7mph
Humidity: 80%   Direction: 300°WNW
Pressure: 29.71"   Gusts: NA
Location:  43.27°N, 82.53°W
Report Text: CYZR 292000Z AUTO 30006KT 9SM -SN OVC043 M00/M03 A2971 RMK SLP068
Loading
Personal Weather Stations






























Interactive Weather Map New forecast layout! Learn more

10-Day Weather Forecast

Advertisements
Track Severe Weather on mobile